Time;durP1;ratioP1;P1;durP2;ratioP2;P2;SDS_P1;SDS_P2;PMS_P1;PMS_P2;Temp;Humidity;BMP_temperature;BMP_pressure;BME280_temperature;BME280_humidity;BME280_pressure;Samples;Min_cycle;Max_cycle;Signal;HPM_P1;HPM_P2
2022/01/27 00:00:49;;;;;;;17.98;9.30;;;6.00;99.90;;;;;;5034040;28;20128;-77
2022/01/27 00:05:48;;;;;;;16.73;7.22;;;5.90;99.90;;;;;;5033945;28;20225;-77
2022/01/27 00:08:19;;;;;;;16.17;7.97;;;6.00;99.90;;;;;;5033985;28;20049;-80
2022/01/27 00:10:52;;;;;;;17.73;7.75;;;5.90;99.90;;;;;;5034046;28;20057;-79
2022/01/27 00:13:24;;;;;;;16.75;8.27;;;5.90;99.90;;;;;;5014775;28;20057;-80
2022/01/27 00:15:59;;;;;;;14.82;7.25;;;5.90;99.90;;;;;;5028262;28;20048;-80
2022/01/27 00:18:24;;;;;;;21.83;9.48;;;5.80;99.90;;;;;;5033737;28;20041;-78
2022/01/27 00:20:50;;;;;;;20.52;9.65;;;5.80;99.90;;;;;;5016977;28;20511;-79
2022/01/27 00:23:16;;;;;;;20.33;8.95;;;5.80;99.90;;;;;;5033252;28;20190;-79
2022/01/27 00:25:42;;;;;;;29.88;10.18;;;5.80;99.90;;;;;;5033694;28;20052;-80
2022/01/27 00:28:08;;;;;;;19.70;8.88;;;5.90;99.90;;;;;;5017513;28;20125;-78
2022/01/27 00:30:35;;;;;;;20.30;10.02;;;5.90;99.90;;;;;;5017810;28;20080;-77
2022/01/27 00:33:03;;;;;;;16.05;8.05;;;5.80;99.90;;;;;;5017343;28;20045;-79
2022/01/27 00:35:32;;;;;;;22.65;9.73;;;5.80;99.90;;;;;;5033966;28;20551;-78
2022/01/27 00:37:59;;;;;;;10.00;5.70;;;5.80;99.90;;;;;;5034048;28;20044;-78
2022/01/27 00:40:25;;;;;;;14.60;6.80;;;5.80;99.90;;;;;;5033772;28;20320;-77
2022/01/27 00:42:51;;;;;;;22.20;10.18;;;5.80;99.90;;;;;;5017108;28;20096;-77
2022/01/27 00:45:17;;;;;;;22.23;9.75;;;5.80;99.90;;;;;;5000470;28;20045;-78
2022/01/27 00:47:43;;;;;;;20.35;9.70;;;5.80;99.90;;;;;;5000536;28;20075;-79
2022/01/27 00:50:09;;;;;;;27.00;11.43;;;5.80;99.90;;;;;;5033534;28;20060;-79
2022/01/27 00:52:43;;;;;;;19.48;8.75;;;5.80;99.90;;;;;;5016669;28;20045;-79
2022/01/27 00:55:10;;;;;;;17.73;9.40;;;5.80;99.90;;;;;;5033600;28;20058;-77
2022/01/27 01:00:18;;;;;;;18.25;9.65;;;5.80;99.90;;;;;;5032797;28;20088;-78
2022/01/27 01:02:51;;;;;;;18.20;8.82;;;5.70;99.90;;;;;;5033012;28;20057;-79
2022/01/27 01:05:43;;;;;;;21.55;9.02;;;5.80;99.90;;;;;;5017817;28;20590;-78
2022/01/27 01:14:16;;;;;;;19.50;9.18;;;5.60;99.90;;;;;;5032970;28;20098;-78
2022/01/27 01:16:22;;;;;;;22.48;9.63;;;5.70;99.90;;;;;;5032781;28;20049;-78
2022/01/27 01:32:37;;;;;;;24.70;11.48;;;5.60;99.90;;;;;;5017785;28;20140;-79
2022/01/27 01:35:05;;;;;;;28.15;10.85;;;5.50;99.90;;;;;;5031936;28;20056;-77
2022/01/27 01:37:37;;;;;;;23.15;10.07;;;5.50;99.90;;;;;;5031748;28;20043;-79
2022/01/27 01:40:05;;;;;;;23.85;11.23;;;5.50;99.90;;;;;;5015610;28;20037;-79
2022/01/27 01:42:31;;;;;;;23.92;11.18;;;5.50;99.90;;;;;;5031480;28;20492;-79
2022/01/27 01:45:05;;;;;;;24.75;12.10;;;5.50;99.90;;;;;;5015442;28;20037;-79
2022/01/27 01:47:30;;;;;;;21.90;11.23;;;5.50;99.90;;;;;;5031652;28;20041;-77
2022/01/27 01:49:56;;;;;;;20.85;12.30;;;5.50;99.90;;;;;;5031418;28;20455;-78
2022/01/27 01:52:22;;;;;;;25.40;13.55;;;5.40;99.90;;;;;;5031711;28;20498;-77
2022/01/27 01:54:48;;;;;;;26.73;11.35;;;5.50;99.90;;;;;;5031204;28;20038;-77
2022/01/27 01:57:14;;;;;;;23.70;11.40;;;5.40;99.90;;;;;;5031973;28;20380;-77
2022/01/27 01:59:39;;;;;;;24.10;11.48;;;5.40;99.90;;;;;;5015597;28;20050;-77
2022/01/27 02:02:05;;;;;;;23.35;10.27;;;5.40;99.90;;;;;;5031410;28;20407;-79
2022/01/27 02:04:31;;;;;;;18.67;10.55;;;5.30;99.90;;;;;;5031279;28;20112;-77
2022/01/27 02:07:02;;;;;;;15.45;9.00;;;5.30;99.90;;;;;;5032020;28;20053;-77
2022/01/27 02:18:01;;;;;;;23.02;11.60;;;5.40;99.90;;;;;;5027766;28;20050;-79
2022/01/27 02:20:31;;;;;;;19.08;9.05;;;5.40;99.90;;;;;;5031330;28;20111;-79
2022/01/27 02:22:57;;;;;;;24.48;12.93;;;5.40;99.90;;;;;;5014655;28;20545;-77
2022/01/27 02:25:23;;;;;;;22.77;10.82;;;5.50;99.90;;;;;;5031841;28;20052;-77
2022/01/27 02:27:56;;;;;;;25.77;14.35;;;5.50;99.90;;;;;;5031263;28;20045;-78
2022/01/27 02:30:22;;;;;;;25.70;12.77;;;5.70;99.90;;;;;;5014480;28;20045;-77
2022/01/27 02:32:52;;;;;;;26.50;13.85;;;5.60;99.90;;;;;;4997650;28;20037;-79
2022/01/27 02:35:22;;;;;;;25.00;12.05;;;5.60;99.90;;;;;;5014798;28;20038;-78
2022/01/27 02:37:48;;;;;;;28.13;15.50;;;5.60;99.90;;;;;;5030932;28;20037;-77
2022/01/27 02:40:48;;;;;;;34.95;15.65;;;5.70;99.90;;;;;;5011648;28;20046;-77
2022/01/27 02:43:13;;;;;;;26.02;13.10;;;5.60;99.90;;;;;;5027517;28;20132;-78
2022/01/27 02:45:58;;;;;;;21.45;11.48;;;5.60;99.90;;;;;;5031522;28;20128;-79
2022/01/27 02:48:24;;;;;;;26.90;13.43;;;5.60;99.90;;;;;;5030654;28;20087;-77
2022/01/27 02:50:49;;;;;;;23.45;10.43;;;5.70;99.90;;;;;;5031624;28;20512;-79
2022/01/27 02:53:15;;;;;;;29.98;14.98;;;5.60;99.90;;;;;;5014423;28;20124;-80
2022/01/27 02:55:42;;;;;;;22.40;12.02;;;5.80;99.90;;;;;;5014600;28;20073;-77
2022/01/27 02:58:10;;;;;;;32.70;14.13;;;5.70;99.90;;;;;;5030468;28;20120;-77
2022/01/27 03:00:36;;;;;;;27.92;11.88;;;5.70;99.90;;;;;;5030974;28;20045;-80
2022/01/27 03:03:02;;;;;;;20.45;10.57;;;5.70;99.90;;;;;;5029972;28;20381;-77
2022/01/27 03:05:27;;;;;;;26.83;12.05;;;5.70;99.90;;;;;;5030528;28;20096;-79
2022/01/27 03:07:53;;;;;;;30.55;13.30;;;5.70;99.90;;;;;;5030430;28;20484;-77
2022/01/27 03:10:20;;;;;;;26.08;13.80;;;5.70;99.90;;;;;;5031218;28;20049;-79
2022/01/27 03:12:48;;;;;;;18.88;10.18;;;5.70;99.90;;;;;;5014446;28;20038;-80
2022/01/27 03:15:14;;;;;;;24.83;11.65;;;5.70;99.90;;;;;;5031295;28;20563;-77
2022/01/27 03:17:40;;;;;;;31.55;17.17;;;5.80;99.90;;;;;;5030421;28;20128;-80
2022/01/27 03:20:09;;;;;;;25.05;11.90;;;5.80;99.90;;;;;;5030842;28;20038;-79
2022/01/27 03:22:35;;;;;;;21.75;11.30;;;5.80;99.90;;;;;;5014369;28;20483;-77
2022/01/27 03:25:01;;;;;;;28.65;15.95;;;5.80;99.90;;;;;;5034159;28;20040;-78
2022/01/27 03:27:28;;;;;;;28.15;13.82;;;5.80;99.90;;;;;;5002067;28;20434;-79
2022/01/27 03:29:53;;;;;;;19.88;10.43;;;5.80;99.90;;;;;;5018175;28;20503;-77
2022/01/27 03:32:20;;;;;;;25.75;13.80;;;5.80;99.90;;;;;;5033565;28;20038;-78
2022/01/27 03:34:46;;;;;;;25.63;12.38;;;5.70;99.90;;;;;;5034281;28;20506;-78
2022/01/27 03:37:12;;;;;;;22.92;10.98;;;5.80;99.90;;;;;;5034038;28;20048;-80
2022/01/27 03:39:40;;;;;;;23.98;9.90;;;5.90;99.90;;;;;;5024611;28;20046;-79
2022/01/27 03:42:07;;;;;;;26.27;13.32;;;5.80;99.90;;;;;;5034143;28;20065;-79
2022/01/27 03:44:34;;;;;;;28.60;13.15;;;5.70;99.90;;;;;;5034137;28;20085;-80
2022/01/27 03:47:00;;;;;;;25.00;12.23;;;5.80;99.90;;;;;;5034435;28;20533;-80
2022/01/27 03:49:25;;;;;;;22.38;12.63;;;5.80;99.90;;;;;;5034819;28;20388;-78
2022/01/27 03:51:52;;;;;;;28.85;14.10;;;5.90;99.90;;;;;;5033792;28;20059;-77
2022/01/27 03:54:18;;;;;;;20.20;10.80;;;5.80;99.90;;;;;;5034004;28;20045;-78
2022/01/27 03:56:44;;;;;;;22.15;12.23;;;5.90;99.90;;;;;;5034043;28;20095;-79
2022/01/27 03:59:10;;;;;;;23.35;11.15;;;5.90;99.90;;;;;;5034404;28;20045;-79
2022/01/27 04:01:36;;;;;;;18.42;10.52;;;5.80;99.90;;;;;;5000364;28;20071;-80
2022/01/27 04:04:02;;;;;;;27.42;15.20;;;6.00;99.90;;;;;;4997707;28;20038;-80
2022/01/27 04:06:40;;;;;;;23.33;11.93;;;5.90;99.90;;;;;;5031597;28;20037;-80
2022/01/27 04:09:08;;;;;;;20.02;9.90;;;5.90;99.90;;;;;;5004035;28;20099;-79
2022/01/27 04:11:35;;;;;;;23.58;11.15;;;5.90;99.90;;;;;;5033527;28;20511;-80
2022/01/27 04:14:01;;;;;;;21.77;11.57;;;5.90;99.90;;;;;;5033574;28;20041;-77
2022/01/27 04:16:27;;;;;;;27.88;12.27;;;6.10;99.90;;;;;;5016829;28;20107;-78
2022/01/27 04:18:52;;;;;;;27.38;13.52;;;5.90;99.90;;;;;;5033048;28;20060;-78
2022/01/27 04:21:19;;;;;;;31.25;14.82;;;6.20;99.90;;;;;;5017006;28;20095;-79
2022/01/27 04:23:44;;;;;;;26.38;11.68;;;6.00;99.90;;;;;;5033488;28;20376;-80
2022/01/27 04:26:13;;;;;;;23.55;10.50;;;6.00;99.90;;;;;;5048727;28;20052;-79
2022/01/27 04:28:40;;;;;;;22.98;10.60;;;6.00;99.90;;;;;;5033328;28;20461;-78
2022/01/27 04:31:08;;;;;;;20.30;10.68;;;6.00;99.90;;;;;;5016512;28;20138;-79
2022/01/27 04:33:36;;;;;;;30.63;13.88;;;5.80;99.90;;;;;;5032931;28;20491;-78
2022/01/27 04:36:08;;;;;;;24.88;9.10;;;5.60;99.90;;;;;;5032635;28;20507;-79
2022/01/27 04:38:45;;;;;;;24.15;11.25;;;5.50;99.90;;;;;;5033393;28;20526;-80
2022/01/27 04:46:35;;;;;;;31.42;11.65;;;5.60;99.90;;;;;;5019047;28;20045;-80
2022/01/27 04:49:04;;;;;;;21.85;10.40;;;5.60;99.90;;;;;;5001879;28;20044;-78
2022/01/27 04:51:30;;;;;;;23.65;9.45;;;5.50;99.90;;;;;;5017056;28;20037;-78
2022/01/27 04:56:23;;;;;;;30.38;11.98;;;5.60;99.90;;;;;;5033322;28;20201;-79
2022/01/27 04:58:54;;;;;;;19.10;8.43;;;5.70;99.90;;;;;;5032752;28;20072;-80
2022/01/27 05:01:26;;;;;;;25.58;9.23;;;5.70;99.90;;;;;;5016483;28;20099;-76
2022/01/27 05:03:59;;;;;;;26.90;11.18;;;5.50;99.90;;;;;;5032758;28;20519;-77
2022/01/27 05:06:24;;;;;;;25.80;11.63;;;5.70;99.90;;;;;;5032898;28;20049;-77
2022/01/27 05:08:50;;;;;;;23.48;10.30;;;5.50;99.90;;;;;;5016551;28;20060;-80
2022/01/27 05:11:24;;;;;;;26.17;10.75;;;5.50;99.90;;;;;;5016605;28;20452;-78
2022/01/27 05:13:55;;;;;;;23.98;10.32;;;5.70;99.90;;;;;;5033279;28;20053;-81
2022/01/27 05:16:21;;;;;;;18.75;9.52;;;5.50;99.90;;;;;;5032750;28;20037;-80
2022/01/27 05:18:47;;;;;;;22.23;10.23;;;5.60;99.90;;;;;;5032766;28;20188;-81
2022/01/27 05:21:13;;;;;;;22.58;9.88;;;5.50;99.90;;;;;;5015996;28;20044;-79
2022/01/27 05:23:38;;;;;;;16.73;8.48;;;5.60;99.90;;;;;;5000184;28;20045;-80
2022/01/27 05:26:04;;;;;;;15.65;6.97;;;5.50;99.90;;;;;;5016718;28;20041;-80
2022/01/27 05:28:30;;;;;;;21.77;9.55;;;5.50;99.90;;;;;;5032384;28;20204;-80
2022/01/27 05:30:56;;;;;;;24.90;9.77;;;5.60;99.90;;;;;;5032294;28;20052;-78
2022/01/27 05:33:22;;;;;;;23.42;7.68;;;5.60;99.90;;;;;;5015480;28;20500;-80
2022/01/27 05:35:47;;;;;;;25.80;10.13;;;5.60;99.90;;;;;;4999783;28;20057;-79
2022/01/27 05:38:15;;;;;;;23.50;9.82;;;5.50;99.90;;;;;;5032118;28;20049;-77
2022/01/27 05:40:42;;;;;;;24.88;10.07;;;5.50;99.90;;;;;;5031542;28;21860;-79
2022/01/27 05:43:08;;;;;;;31.55;10.60;;;5.50;99.90;;;;;;5015645;28;20088;-78
2022/01/27 05:45:34;;;;;;;26.98;9.52;;;5.40;99.90;;;;;;5015603;28;20457;-77
2022/01/27 05:48:00;;;;;;;18.65;6.85;;;5.50;99.90;;;;;;5014999;28;20120;-78
2022/01/27 05:50:25;;;;;;;19.98;8.68;;;5.50;99.90;;;;;;5031708;28;20540;-78
2022/01/27 05:52:51;;;;;;;23.42;7.82;;;5.50;99.90;;;;;;5030489;28;20052;-78
2022/01/27 05:55:17;;;;;;;19.10;8.23;;;5.50;99.90;;;;;;4998859;28;20408;-80
2022/01/27 05:57:43;;;;;;;27.08;9.25;;;5.50;99.90;;;;;;5032218;28;20045;-78
2022/01/27 06:00:10;;;;;;;21.70;9.65;;;5.50;99.90;;;;;;5031799;28;20041;-77
2022/01/27 06:02:37;;;;;;;19.15;9.23;;;5.60;99.90;;;;;;5031923;28;20491;-78
2022/01/27 06:05:03;;;;;;;22.15;9.00;;;5.60;99.90;;;;;;5031379;28;20594;-80
2022/01/27 06:07:29;;;;;;;21.75;8.15;;;5.60;99.90;;;;;;5031854;28;20041;-77
2022/01/27 06:09:56;;;;;;;18.33;7.18;;;5.60;99.90;;;;;;5031487;28;20049;-77
2022/01/27 06:12:23;;;;;;;29.65;8.77;;;5.60;99.90;;;;;;5031134;28;20119;-79
2022/01/27 06:14:48;;;;;;;21.10;10.02;;;5.70;99.90;;;;;;5031530;28;20103;-80
2022/01/27 06:17:14;;;;;;;25.90;8.70;;;5.70;99.90;;;;;;5032179;28;20432;-77
2022/01/27 06:19:44;;;;;;;19.13;7.95;;;5.70;99.90;;;;;;5031544;28;20049;-80
2022/01/27 06:22:13;;;;;;;26.65;9.82;;;5.70;99.90;;;;;;5015619;28;20060;-78
2022/01/27 06:24:44;;;;;;;19.17;9.55;;;5.80;99.90;;;;;;5015692;28;20365;-81
2022/01/27 06:27:10;;;;;;;18.25;7.97;;;5.80;99.90;;;;;;5032496;28;20053;-78
2022/01/27 06:29:37;;;;;;;13.43;6.88;;;5.90;99.90;;;;;;5016229;28;20042;-80
2022/01/27 06:32:03;;;;;;;22.13;9.40;;;5.80;99.90;;;;;;5015695;28;20046;-80
2022/01/27 06:34:29;;;;;;;17.50;6.50;;;5.90;99.90;;;;;;5031670;28;20052;-77
2022/01/27 06:36:54;;;;;;;25.58;11.35;;;5.80;99.90;;;;;;4998749;28;20670;-77
2022/01/27 06:39:20;;;;;;;21.90;9.95;;;6.00;99.90;;;;;;5015198;28;20048;-80
2022/01/27 06:41:47;;;;;;;25.77;11.35;;;5.90;99.90;;;;;;4998941;28;20141;-78
2022/01/27 06:44:13;;;;;;;17.58;7.95;;;5.80;99.90;;;;;;5015591;28;20133;-80
2022/01/27 06:46:39;;;;;;;24.77;10.32;;;5.80;99.90;;;;;;5015102;28;20052;-77
2022/01/27 06:49:05;;;;;;;20.10;9.30;;;5.90;99.90;;;;;;5014774;28;20412;-79
2022/01/27 06:51:31;;;;;;;17.55;9.70;;;6.10;99.90;;;;;;5014910;28;20042;-81
2022/01/27 06:53:58;;;;;;;17.15;8.45;;;5.90;99.90;;;;;;5015976;28;20508;-77
2022/01/27 06:56:25;;;;;;;23.10;8.95;;;5.90;99.90;;;;;;5032038;28;20080;-80
2022/01/27 06:58:52;;;;;;;22.30;10.68;;;6.10;99.90;;;;;;5033115;28;20121;-81
2022/01/27 07:01:18;;;;;;;22.98;9.45;;;6.00;99.90;;;;;;5019047;28;20041;-77
2022/01/27 07:03:43;;;;;;;16.40;7.53;;;6.10;99.90;;;;;;5019078;28;20076;-81
2022/01/27 07:06:09;;;;;;;22.13;8.48;;;6.00;99.90;;;;;;5035526;28;20060;-80
2022/01/27 07:08:35;;;;;;;21.48;8.77;;;6.10;99.90;;;;;;5018781;28;20041;-81
2022/01/27 07:11:00;;;;;;;16.63;6.93;;;6.20;99.90;;;;;;5035541;28;20041;-81
2022/01/27 07:13:26;;;;;;;18.70;9.18;;;6.30;99.90;;;;;;5019279;28;20049;-77
2022/01/27 07:15:52;;;;;;;17.15;8.02;;;6.10;99.90;;;;;;5035576;28;20048;-81
2022/01/27 07:18:18;;;;;;;20.10;7.80;;;6.10;99.90;;;;;;5001605;28;20049;-77
2022/01/27 07:20:45;;;;;;;16.92;7.60;;;6.20;99.90;;;;;;5014306;28;20041;-77
2022/01/27 07:23:10;;;;;;;9.90;6.43;;;6.20;99.90;;;;;;5034690;28;20049;-77
2022/01/27 07:25:36;;;;;;;20.05;7.22;;;6.20;99.90;;;;;;5017754;28;20048;-77
2022/01/27 07:28:03;;;;;;;17.90;8.07;;;6.30;99.90;;;;;;5034339;28;20041;-81
2022/01/27 07:30:29;;;;;;;14.93;6.60;;;6.30;99.90;;;;;;5018408;28;20037;-77
2022/01/27 07:32:54;;;;;;;15.18;6.30;;;6.30;99.90;;;;;;5032656;28;20046;-82
2022/01/27 07:35:20;;;;;;;18.23;8.38;;;6.30;99.90;;;;;;5017453;28;20045;-77
2022/01/27 07:37:46;;;;;;;24.00;9.18;;;6.50;99.90;;;;;;5033840;28;20042;-76
2022/01/27 07:40:13;;;;;;;17.75;7.35;;;6.40;99.90;;;;;;5034232;28;20085;-81
2022/01/27 07:42:40;;;;;;;14.77;7.35;;;6.40;99.90;;;;;;5034389;28;20419;-78
2022/01/27 07:45:08;;;;;;;21.70;8.52;;;6.30;99.90;;;;;;5034048;28;20504;-81
2022/01/27 07:47:34;;;;;;;23.92;8.65;;;6.40;99.90;;;;;;5017757;28;20053;-82
2022/01/27 07:50:00;;;;;;;16.17;6.88;;;6.50;99.90;;;;;;5017613;28;20496;-77
2022/01/27 07:52:26;;;;;;;18.33;8.00;;;6.50;99.90;;;;;;5033872;28;20041;-81
2022/01/27 07:54:52;;;;;;;19.20;7.93;;;6.50;99.90;;;;;;5033724;28;20495;-83
2022/01/27 07:57:18;;;;;;;15.70;6.72;;;6.50;99.90;;;;;;5026265;28;20498;-83
2022/01/27 07:59:43;;;;;;;19.35;6.88;;;6.50;99.90;;;;;;5015172;28;20050;-76
2022/01/27 08:02:09;;;;;;;15.77;6.13;;;6.60;99.90;;;;;;5033888;28;20085;-77
2022/01/27 08:04:35;;;;;;;21.60;7.80;;;6.60;99.90;;;;;;5017078;28;20099;-82
2022/01/27 08:07:02;;;;;;;19.55;6.20;;;6.60;99.90;;;;;;5034060;28;20048;-76
2022/01/27 08:09:28;;;;;;;19.35;6.07;;;6.60;99.90;;;;;;4999654;28;20042;-82
2022/01/27 08:11:54;;;;;;;15.15;6.20;;;6.60;99.90;;;;;;5033410;28;20049;-82
2022/01/27 08:14:20;;;;;;;19.15;6.00;;;6.70;99.90;;;;;;5016370;28;20040;-76
2022/01/27 08:16:46;;;;;;;16.58;5.40;;;6.70;99.90;;;;;;5016723;28;20107;-81
2022/01/27 08:19:11;;;;;;;15.50;5.55;;;6.80;99.90;;;;;;5017300;28;20124;-77
2022/01/27 08:21:37;;;;;;;19.20;7.38;;;6.80;99.90;;;;;;5016571;28;20045;-81
2022/01/27 08:24:03;;;;;;;18.75;6.45;;;6.90;99.90;;;;;;5034137;28;20045;-82
2022/01/27 08:26:38;;;;;;;16.50;4.68;;;6.90;99.90;;;;;;5003345;28;20543;-81
2022/01/27 08:29:32;;;;;;;12.85;5.78;;;6.90;99.90;;;;;;5013918;28;20133;-79
2022/01/27 08:34:35;;;;;;;20.23;6.20;;;7.10;99.90;;;;;;5033125;28;20444;-82
2022/01/27 08:37:04;;;;;;;13.15;4.72;;;7.00;99.90;;;;;;5017230;28;20488;-82
2022/01/27 08:39:30;;;;;;;6.30;3.28;;;7.00;99.90;;;;;;5033564;28;20056;-77
2022/01/27 08:41:56;;;;;;;22.45;5.90;;;7.00;99.90;;;;;;5032714;28;20132;-76
2022/01/27 08:44:22;;;;;;;16.08;4.75;;;7.10;99.90;;;;;;5019490;28;20060;-81
2022/01/27 08:46:48;;;;;;;16.67;4.90;;;7.10;99.90;;;;;;5039124;28;20074;-81
2022/01/27 08:49:14;;;;;;;15.77;4.03;;;7.10;99.90;;;;;;5015146;28;20046;-77
2022/01/27 08:51:40;;;;;;;15.52;5.35;;;7.10;99.90;;;;;;5014828;28;20389;-82
2022/01/27 08:54:06;;;;;;;23.48;5.35;;;7.10;99.90;;;;;;5031071;28;20489;-76
2022/01/27 08:56:32;;;;;;;17.95;4.75;;;7.10;99.90;;;;;;5016969;28;20451;-78
2022/01/27 08:58:57;;;;;;;13.55;4.93;;;7.10;99.90;;;;;;5033086;28;20128;-76
2022/01/27 09:01:26;;;;;;;15.80;5.10;;;7.20;99.90;;;;;;5023475;28;20041;-81
2022/01/27 09:03:53;;;;;;;21.45;4.28;;;7.20;99.90;;;;;;5029386;28;20041;-81
2022/01/27 09:06:19;;;;;;;25.50;5.97;;;7.20;99.90;;;;;;5033386;28;20045;-81
2022/01/27 09:08:46;;;;;;;16.75;4.13;;;7.20;99.90;;;;;;5033635;28;20091;-82
2022/01/27 09:11:12;;;;;;;21.33;5.10;;;7.20;99.90;;;;;;4999972;28;20049;-77
2022/01/27 09:13:38;;;;;;;17.85;4.20;;;7.20;99.90;;;;;;5032801;28;20053;-82
2022/01/27 09:16:05;;;;;;;17.52;3.97;;;7.20;99.90;;;;;;5016571;28;20060;-82
2022/01/27 09:18:32;;;;;;;10.48;3.53;;;7.30;99.90;;;;;;5031197;28;20064;-77
2022/01/27 09:21:01;;;;;;;13.68;3.80;;;7.30;99.90;;;;;;5031712;28;20045;-77
2022/01/27 09:23:27;;;;;;;17.17;4.50;;;7.40;99.90;;;;;;5031585;28;20120;-77
2022/01/27 09:25:56;;;;;;;16.40;5.95;;;7.30;99.90;;;;;;5032710;28;20137;-82
2022/01/27 09:28:22;;;;;;;15.48;4.68;;;7.40;99.90;;;;;;5032107;28;20091;-77
2022/01/27 09:30:48;;;;;;;13.10;3.88;;;7.40;99.90;;;;;;5032671;28;20524;-78
2022/01/27 09:33:14;;;;;;;14.30;4.13;;;7.40;99.90;;;;;;5015109;28;20041;-82
2022/01/27 09:35:40;;;;;;;14.57;3.83;;;7.40;99.90;;;;;;5031353;28;20053;-82
2022/01/27 09:38:06;;;;;;;16.00;3.88;;;7.50;99.90;;;;;;5031146;28;20128;-82
2022/01/27 09:40:34;;;;;;;15.10;2.72;;;7.50;99.90;;;;;;5031725;28;20132;-82
2022/01/27 09:43:02;;;;;;;16.17;4.22;;;7.40;99.90;;;;;;5014556;28;20113;-82
2022/01/27 09:45:29;;;;;;;14.13;4.18;;;7.40;99.90;;;;;;5015662;28;20577;-82
2022/01/27 09:47:59;;;;;;;16.88;4.00;;;7.50;99.90;;;;;;5014525;28;20095;-77
2022/01/27 09:53:14;;;;;;;12.93;4.13;;;7.70;99.90;;;;;;5030812;28;20119;-77
2022/01/27 09:55:40;;;;;;;14.15;2.95;;;7.80;99.90;;;;;;5011570;28;20088;-81
2022/01/27 09:58:07;;;;;;;11.45;3.70;;;7.90;99.90;;;;;;5013466;28;20041;-77
2022/01/27 10:00:33;;;;;;;18.92;3.38;;;7.90;99.90;;;;;;5011890;28;20046;-77
2022/01/27 10:03:05;;;;;;;16.33;3.38;;;8.00;99.90;;;;;;5012133;28;20546;-81
2022/01/27 10:05:31;;;;;;;8.15;2.70;;;8.00;99.90;;;;;;5006588;28;20045;-77
2022/01/27 10:08:10;;;;;;;13.88;2.72;;;8.00;99.90;;;;;;5032289;28;20557;-77
2022/01/27 10:10:40;;;;;;;16.58;4.30;;;8.00;99.90;;;;;;5030611;28;20488;-81
2022/01/27 10:13:07;;;;;;;10.20;2.45;;;8.10;99.90;;;;;;5014454;28;20045;-78
2022/01/27 10:15:40;;;;;;;17.15;3.40;;;8.10;99.90;;;;;;5029867;28;20416;-81
2022/01/27 10:18:14;;;;;;;11.10;3.03;;;8.20;99.90;;;;;;5028237;28;20037;-77
2022/01/27 10:20:44;;;;;;;14.15;3.30;;;8.20;99.90;;;;;;5014805;28;20053;-77
2022/01/27 10:23:22;;;;;;;15.95;3.85;;;8.30;99.90;;;;;;5014696;28;20081;-77
2022/01/27 10:25:55;;;;;;;10.40;2.65;;;8.30;99.90;;;;;;5024905;28;20050;-81
2022/01/27 10:28:25;;;;;;;11.82;2.92;;;8.30;99.90;;;;;;5031761;28;20049;-81
2022/01/27 10:31:05;;;;;;;19.77;3.13;;;8.20;99.90;;;;;;5031374;28;20053;-81
2022/01/27 10:33:50;;;;;;;9.98;3.63;;;8.20;99.90;;;;;;5030869;28;20053;-77
2022/01/27 10:36:27;;;;;;;18.75;4.10;;;8.40;99.90;;;;;;5031075;28;20041;-77
2022/01/27 10:38:56;;;;;;;15.15;3.60;;;8.50;99.90;;;;;;5031518;28;20060;-77
2022/01/27 10:41:23;;;;;;;15.68;3.03;;;8.50;99.90;;;;;;5031266;28;20072;-81
2022/01/27 10:43:49;;;;;;;15.23;3.75;;;8.50;99.90;;;;;;5030790;28;20049;-81
2022/01/27 10:46:25;;;;;;;12.45;3.03;;;8.50;99.90;;;;;;5027652;28;20589;-81
2022/01/27 10:49:02;;;;;;;19.30;3.78;;;8.50;99.90;;;;;;5012992;28;20103;-81
2022/01/27 10:51:36;;;;;;;15.07;3.67;;;8.50;99.90;;;;;;5029437;28;20048;-77
2022/01/27 10:56:40;;;;;;;14.38;4.20;;;8.60;99.90;;;;;;5029764;28;20052;-81
2022/01/27 10:59:12;;;;;;;11.48;2.92;;;8.50;99.90;;;;;;5029631;28;20041;-81
2022/01/27 11:01:40;;;;;;;19.38;4.43;;;8.50;99.90;;;;;;5029786;28;20479;-82
2022/01/27 11:04:08;;;;;;;16.00;2.95;;;8.50;99.90;;;;;;5012763;28;20125;-80
2022/01/27 11:06:36;;;;;;;12.18;2.60;;;8.50;99.90;;;;;;5013353;28;20115;-81
2022/01/27 11:09:08;;;;;;;24.77;3.63;;;8.50;99.90;;;;;;5027084;28;21954;-81
2022/01/27 11:11:39;;;;;;;21.15;4.28;;;8.50;99.90;;;;;;5027856;28;20075;-78
2022/01/27 11:14:04;;;;;;;18.85;3.63;;;8.50;99.90;;;;;;5029198;28;20042;-77
2022/01/27 11:16:35;;;;;;;15.82;3.90;;;8.50;99.90;;;;;;5029526;28;20049;-77
2022/01/27 11:21:40;;;;;;;14.13;3.00;;;8.50;99.90;;;;;;5030935;28;20050;-81
2022/01/27 11:24:24;;;;;;;17.33;3.63;;;8.60;99.90;;;;;;5030273;28;20042;-78
2022/01/27 11:26:51;;;;;;;;;;;8.60;99.90;;;;;;5027631;28;20492;-81
2022/01/27 11:29:18;;;;;;;15.55;3.33;;;8.70;99.90;;;;;;5013304;28;19927;-81
2022/01/27 11:31:52;;;;;;;16.05;3.47;;;8.60;99.90;;;;;;5008932;28;20211;-81
2022/01/27 11:34:18;;;;;;;13.05;3.58;;;8.70;99.90;;;;;;5030938;28;20484;-78
2022/01/27 11:37:06;;;;;;;21.13;4.43;;;8.70;99.90;;;;;;5029920;28;20041;-78
2022/01/27 11:39:52;;;;;;;19.30;3.78;;;8.70;99.90;;;;;;5018346;28;20045;-78
2022/01/27 11:43:01;;;;;;;15.23;3.92;;;8.70;99.90;;;;;;5028991;28;20061;-78
2022/01/27 11:45:31;;;;;;;15.73;3.17;;;8.70;99.90;;;;;;5032730;28;20049;-82
2022/01/27 11:47:59;;;;;;;24.15;3.60;;;8.70;99.90;;;;;;5017665;28;20041;-81
2022/01/27 11:50:56;;;;;;;15.88;4.15;;;8.70;99.90;;;;;;5017642;28;20119;-78
2022/01/27 11:53:43;;;;;;;19.02;3.10;;;8.70;99.90;;;;;;5034211;28;20080;-82
2022/01/27 11:56:23;;;;;;;23.13;3.15;;;8.70;99.90;;;;;;5034101;28;20120;-82
2022/01/27 11:58:51;;;;;;;12.25;2.47;;;8.80;99.90;;;;;;5016880;28;20049;-78
2022/01/27 12:01:21;;;;;;;18.30;3.10;;;8.80;99.90;;;;;;5033544;28;20045;-77
2022/01/27 12:04:11;;;;;;;14.57;3.30;;;8.80;99.90;;;;;;5033928;28;20041;-79
2022/01/27 12:06:41;;;;;;;20.02;3.47;;;8.70;99.90;;;;;;5033146;28;20051;-81
2022/01/27 12:09:36;;;;;;;19.05;2.60;;;8.80;99.90;;;;;;5016209;28;20069;-81
2022/01/27 12:12:07;;;;;;;11.68;2.55;;;8.80;99.90;;;;;;5033190;28;20080;-81
2022/01/27 12:14:35;;;;;;;8.90;2.90;;;8.80;99.90;;;;;;5017332;28;20079;-80
2022/01/27 12:17:07;;;;;;;13.05;2.67;;;8.80;99.90;;;;;;5033604;28;20574;-82
2022/01/27 12:20:08;;;;;;;13.13;3.75;;;8.90;99.90;;;;;;5033612;28;20131;-78
2022/01/27 12:22:44;;;;;;;20.55;3.72;;;8.80;99.90;;;;;;5016854;28;20064;-78
2022/01/27 12:25:12;;;;;;;15.43;3.25;;;8.90;99.90;;;;;;5016443;28;20053;-77
2022/01/27 12:27:39;;;;;;;21.55;3.88;;;8.80;99.90;;;;;;4997444;28;20119;-81
2022/01/27 12:30:09;;;;;;;23.90;4.20;;;8.80;99.90;;;;;;5048511;28;20045;-82
2022/01/27 12:32:35;;;;;;;12.85;3.08;;;8.80;99.90;;;;;;5017127;28;20038;-78
2022/01/27 12:35:12;;;;;;;14.57;3.08;;;8.80;99.90;;;;;;5016628;28;20071;-81
2022/01/27 12:37:41;;;;;;;17.50;3.10;;;8.80;99.90;;;;;;5000180;28;20038;-78
2022/01/27 12:40:08;;;;;;;14.80;2.60;;;8.80;99.90;;;;;;5033333;28;20053;-78
2022/01/27 12:42:38;;;;;;;19.02;3.67;;;8.80;99.90;;;;;;5032683;28;20053;-78
2022/01/27 12:45:13;;;;;;;17.77;3.33;;;8.80;99.90;;;;;;5032961;28;20061;-78
2022/01/27 12:47:41;;;;;;;11.10;2.78;;;8.80;99.90;;;;;;5016231;28;20049;-81
2022/01/27 12:50:10;;;;;;;22.70;3.58;;;8.80;99.90;;;;;;5016441;28;20179;-80
2022/01/27 12:52:41;;;;;;;32.95;3.67;;;8.80;99.90;;;;;;5032521;28;20048;-79
2022/01/27 12:55:10;;;;;;;14.35;2.80;;;8.80;99.90;;;;;;5015524;28;20030;-81
2022/01/27 12:57:36;;;;;;;25.17;3.30;;;8.80;99.90;;;;;;5031146;28;20037;-78
2022/01/27 13:00:05;;;;;;;19.58;3.20;;;8.80;99.90;;;;;;5015736;28;20116;-77
2022/01/27 13:02:32;;;;;;;19.45;2.95;;;8.80;99.90;;;;;;5016181;28;20072;-81
2022/01/27 13:05:00;;;;;;;15.35;3.63;;;8.80;99.90;;;;;;5032964;28;20106;-78
2022/01/27 13:07:27;;;;;;;17.42;3.55;;;8.80;99.90;;;;;;5032694;28;20506;-78
2022/01/27 13:10:09;;;;;;;17.48;2.88;;;8.90;99.90;;;;;;5016358;28;20466;-79
2022/01/27 13:12:48;;;;;;;13.10;2.15;;;8.90;99.90;;;;;;5031763;28;20060;-78
2022/01/27 13:15:18;;;;;;;9.38;2.70;;;9.00;99.90;;;;;;5032553;28;20120;-81
2022/01/27 13:17:52;;;;;;;20.95;3.75;;;9.10;99.90;;;;;;5031428;28;20106;-78
2022/01/27 13:20:33;;;;;;;24.02;3.83;;;9.20;99.90;;;;;;5012898;28;20045;-78
2022/01/27 13:23:13;;;;;;;18.80;3.53;;;9.10;99.90;;;;;;5032036;28;20052;-80
2022/01/27 13:25:43;;;;;;;18.52;2.80;;;9.00;99.90;;;;;;5031812;28;20048;-77
2022/01/27 13:28:10;;;;;;;19.77;3.33;;;8.90;99.90;;;;;;5014958;28;20041;-78
2022/01/27 13:30:36;;;;;;;13.95;2.67;;;8.90;99.90;;;;;;5032271;28;20498;-78
2022/01/27 13:33:06;;;;;;;15.95;4.03;;;8.70;99.90;;;;;;5014362;28;20034;-78
2022/01/27 13:35:34;;;;;;;25.23;3.47;;;8.70;99.90;;;;;;5028984;28;20423;-81
2022/01/27 13:38:18;;;;;;;15.73;3.22;;;8.70;99.90;;;;;;5030516;28;20041;-81
2022/01/27 13:43:50;;;;;;;16.70;2.45;;;8.60;99.90;;;;;;5010290;28;20046;-81
2022/01/27 13:46:59;;;;;;;21.23;2.90;;;8.50;99.90;;;;;;5011395;28;20613;-78
2022/01/27 13:49:35;;;;;;;14.43;2.55;;;8.40;99.90;;;;;;5016215;28;20045;-78